Terminal Aerodrome Forecast
Issued by NWS

Home | Current Version | Previous Version | Graphics & Text | Print | Product List | Glossary On
Versions: 1 2 3 4 5 6 7 8 9 10 11 12 13 14 15 16 17 18 19 20
000
FTUS43 KFGF 201100
TAFBJI
TAF
KBJI 201130Z 2012/2112 VRB06KT P6SM SCT100 BKN250
      TEMPO 2012/2014 5SM BR
     FM201500 19012G20KT P6SM SCT080 SCT250
     FM210000 19006KT P6SM VCTS BKN050CB
     FM210400 VRB05KT P6SM SCT250=

USA.gov is the U.S. government's official web portal to all federal, state and local government web resources and services.